Time;durP1;ratioP1;P1;durP2;ratioP2;P2;SDS_P1;SDS_P2;PMS_P1;PMS_P2;Temp;Humidity;BMP_temperature;BMP_pressure;BME280_temperature;BME280_humidity;BME280_pressure;Samples;Min_cycle;Max_cycle;Signal;HPM_P1;HPM_P2
2023/12/04 00:00:15;;;;;;;4.63;4.53;;;15.80;61.60;;;;;;5109767;27;43406;-71
2023/12/04 00:02:43;;;;;;;4.47;4.37;;;15.80;61.70;;;;;;5108383;27;43870;-70
2023/12/04 00:05:12;;;;;;;4.37;4.27;;;15.80;61.80;;;;;;5108857;27;43405;-70
2023/12/04 00:07:41;;;;;;;4.60;4.50;;;15.80;61.80;;;;;;5108814;27;43382;-71
2023/12/04 00:10:09;;;;;;;4.83;4.70;;;15.80;61.90;;;;;;5108318;27;43404;-71
2023/12/04 00:12:37;;;;;;;4.40;4.30;;;15.80;61.90;;;;;;5108593;27;44087;-71
2023/12/04 00:15:06;;;;;;;4.20;4.10;;;15.70;61.90;;;;;;5119538;27;43369;-70
2023/12/04 00:17:39;;;;;;;4.37;4.27;;;15.80;61.90;;;;;;5118708;27;43923;-69
2023/12/04 00:20:08;;;;;;;4.40;4.30;;;15.80;62.00;;;;;;5124394;27;43342;-70
2023/12/04 00:22:38;;;;;;;4.30;4.10;;;15.80;62.00;;;;;;5109289;27;46042;-70
2023/12/04 00:25:07;;;;;;;4.33;4.23;;;15.70;61.90;;;;;;5120737;27;43379;-70
2023/12/04 00:27:35;;;;;;;4.90;4.70;;;15.70;61.90;;;;;;5122232;27;43449;-70
2023/12/04 00:30:04;;;;;;;4.43;4.33;;;15.70;62.00;;;;;;5121069;27;43501;-70
2023/12/04 00:32:32;;;;;;;4.67;4.57;;;15.70;62.10;;;;;;5119844;27;43842;-70
2023/12/04 00:35:00;;;;;;;4.97;4.77;;;15.80;62.00;;;;;;5106560;27;44398;-70
2023/12/04 00:37:28;;;;;;;4.50;4.40;;;15.80;61.60;;;;;;5120782;27;43390;-70
2023/12/04 00:39:59;;;;;;;4.73;4.63;;;15.90;61.50;;;;;;5121269;27;43428;-70
2023/12/04 00:42:27;;;;;;;4.70;4.50;;;15.90;61.50;;;;;;5120814;27;43678;-70
2023/12/04 00:44:55;;;;;;;4.43;4.33;;;15.80;61.50;;;;;;5118964;27;44715;-70
2023/12/04 00:47:23;;;;;;;4.60;4.50;;;15.80;61.60;;;;;;5126598;27;43354;-70
2023/12/04 00:49:52;;;;;;;4.50;4.40;;;15.80;61.60;;;;;;5122920;27;43449;-70
2023/12/04 00:52:20;;;;;;;4.30;4.20;;;15.80;61.60;;;;;;5122972;27;44019;-70
2023/12/04 00:54:48;;;;;;;4.70;4.50;;;15.80;61.60;;;;;;5121759;27;43402;-70
2023/12/04 00:57:17;;;;;;;4.33;4.23;;;15.80;61.70;;;;;;5121139;27;43876;-70
2023/12/04 00:59:45;;;;;;;4.60;4.50;;;15.80;61.70;;;;;;5109841;27;43548;-69
2023/12/04 01:02:13;;;;;;;4.27;4.17;;;15.80;61.80;;;;;;5116107;27;45749;-69
2023/12/04 01:04:41;;;;;;;4.17;4.07;;;15.80;61.90;;;;;;5118659;27;43426;-69
2023/12/04 01:07:09;;;;;;;4.23;4.13;;;15.70;61.90;;;;;;5121801;27;43429;-70
2023/12/04 01:09:37;;;;;;;4.57;4.47;;;15.80;61.90;;;;;;5121489;27;43410;-70
2023/12/04 01:12:06;;;;;;;4.40;4.30;;;15.80;61.60;;;;;;5120649;27;43879;-70
2023/12/04 01:14:38;;;;;;;4.10;4.00;;;15.80;61.60;;;;;;5120527;27;43451;-69
2023/12/04 01:17:06;;;;;;;4.40;4.20;;;15.80;61.50;;;;;;5121029;27;43408;-69
2023/12/04 01:19:34;;;;;;;4.17;4.07;;;15.80;61.50;;;;;;5121031;27;43425;-69
2023/12/04 01:22:02;;;;;;;4.17;4.07;;;15.80;61.60;;;;;;5118285;27;43771;-68
2023/12/04 01:24:30;;;;;;;4.20;4.10;;;15.80;61.70;;;;;;5121951;27;43373;-69
2023/12/04 01:26:59;;;;;;;4.50;4.40;;;15.80;61.70;;;;;;5123558;27;43412;-69
2023/12/04 01:29:27;;;;;;;3.97;3.87;;;15.80;61.70;;;;;;5123897;27;43403;-70
2023/12/04 01:31:56;;;;;;;4.17;4.07;;;15.80;61.70;;;;;;5122624;27;43575;-69
2023/12/04 01:34:24;;;;;;;4.47;4.37;;;15.80;61.80;;;;;;5123422;27;43410;-69
2023/12/04 01:36:52;;;;;;;4.17;4.07;;;15.70;61.70;;;;;;5122648;27;43408;-69
2023/12/04 01:39:20;;;;;;;4.30;4.20;;;15.70;61.70;;;;;;5123527;27;43465;-69
2023/12/04 01:41:48;;;;;;;4.93;4.73;;;15.70;61.90;;;;;;5122821;27;43709;-69
2023/12/04 01:44:17;;;;;;;4.40;4.30;;;15.70;61.80;;;;;;5122532;27;44013;-69
2023/12/04 01:46:45;;;;;;;4.43;4.33;;;15.70;61.70;;;;;;5122744;27;43410;-69
2023/12/04 01:49:15;;;;;;;4.00;3.90;;;15.70;61.80;;;;;;5123552;27;43531;-69
2023/12/04 01:51:43;;;;;;;3.97;3.87;;;15.70;61.70;;;;;;5122427;27;43614;-69
2023/12/04 01:54:11;;;;;;;4.50;4.40;;;15.70;61.80;;;;;;5110528;27;44871;-69
2023/12/04 01:56:39;;;;;;;4.00;3.90;;;15.70;61.80;;;;;;5120632;27;43434;-70
2023/12/04 01:59:07;;;;;;;4.43;4.33;;;15.70;61.90;;;;;;5112662;27;43359;-69
2023/12/04 02:01:35;;;;;;;4.10;4.00;;;15.70;61.90;;;;;;5121120;27;43627;-69
2023/12/04 02:04:03;;;;;;;4.33;4.23;;;15.80;61.80;;;;;;5117373;27;43410;-70
2023/12/04 02:06:33;;;;;;;4.43;4.33;;;15.80;61.30;;;;;;5118035;27;43441;-70
2023/12/04 02:09:01;;;;;;;4.80;4.60;;;15.80;61.20;;;;;;5121888;27;43403;-69
2023/12/04 02:11:29;;;;;;;4.50;4.40;;;15.90;61.30;;;;;;5123140;27;43794;-69
2023/12/04 02:13:57;;;;;;;4.63;4.47;;;15.80;61.20;;;;;;5116396;27;45186;-69
2023/12/04 02:16:26;;;;;;;4.50;4.30;;;15.80;61.40;;;;;;5122915;27;43404;-69
2023/12/04 02:18:54;;;;;;;4.60;4.33;;;15.80;61.40;;;;;;5126857;27;43421;-70
2023/12/04 02:21:22;;;;;;;4.40;4.30;;;15.80;61.50;;;;;;5123230;27;43650;-71
2023/12/04 02:23:52;;;;;;;4.23;4.13;;;15.80;61.50;;;;;;5123673;27;43410;-70
2023/12/04 02:26:25;;;;;;;4.60;4.47;;;15.80;61.50;;;;;;5123416;27;43371;-71
2023/12/04 02:28:55;;;;;;;4.40;4.30;;;15.80;61.60;;;;;;5115458;27;43547;-70
2023/12/04 02:31:23;;;;;;;4.17;4.03;;;15.80;61.60;;;;;;5124034;27;43751;-70
2023/12/04 02:33:51;;;;;;;4.40;4.20;;;15.70;61.60;;;;;;5119596;27;43432;-70
2023/12/04 02:36:19;;;;;;;4.50;4.40;;;15.70;61.70;;;;;;5110373;27;43441;-71
2023/12/04 02:38:47;;;;;;;4.40;4.20;;;15.70;61.60;;;;;;5102066;27;43426;-71
2023/12/04 02:41:17;;;;;;;4.50;4.40;;;15.70;61.60;;;;;;5109956;27;43603;-71
2023/12/04 02:43:45;;;;;;;4.27;4.17;;;15.70;61.60;;;;;;5110252;27;43465;-71
2023/12/04 02:46:13;;;;;;;4.13;3.90;;;15.70;61.70;;;;;;5110242;27;43440;-71
2023/12/04 02:48:41;;;;;;;4.03;3.93;;;15.70;61.70;;;;;;5110874;27;43905;-71
2023/12/04 02:51:11;;;;;;;4.60;4.37;;;15.70;61.70;;;;;;5109598;27;43863;-71
2023/12/04 02:53:39;;;;;;;4.20;3.90;;;15.70;61.90;;;;;;5109337;27;43397;-70
2023/12/04 02:56:07;;;;;;;4.43;4.33;;;15.70;61.70;;;;;;5110029;27;43473;-71
2023/12/04 02:58:37;;;;;;;4.80;4.60;;;15.80;61.60;;;;;;5110380;27;43546;-71
2023/12/04 03:01:05;;;;;;;4.03;3.93;;;15.80;61.20;;;;;;5109318;27;43616;-71
2023/12/04 03:03:34;;;;;;;4.13;4.03;;;15.90;61.10;;;;;;5109960;27;43435;-71
2023/12/04 03:06:02;;;;;;;4.00;3.90;;;15.90;61.10;;;;;;5103154;27;43574;-70
2023/12/04 03:08:30;;;;;;;4.23;4.13;;;15.90;61.10;;;;;;5110298;27;43564;-71
2023/12/04 03:10:58;;;;;;;4.23;4.13;;;15.80;61.10;;;;;;5109364;27;43905;-71
2023/12/04 03:13:25;;;;;;;4.30;4.20;;;15.80;61.20;;;;;;5109710;27;43919;-71
2023/12/04 03:15:55;;;;;;;4.30;4.20;;;15.80;61.30;;;;;;5109964;27;43432;-71
2023/12/04 03:18:25;;;;;;;4.03;3.93;;;15.80;61.30;;;;;;5108781;27;43438;-71
2023/12/04 03:20:54;;;;;;;4.50;4.40;;;15.80;61.40;;;;;;5109426;27;44531;-70
2023/12/04 03:23:22;;;;;;;4.17;4.07;;;15.80;61.50;;;;;;5109487;27;43967;-71
2023/12/04 03:25:50;;;;;;;4.23;4.13;;;15.70;62.20;;;;;;5109478;27;44034;-71
2023/12/04 03:28:18;;;;;;;4.90;4.70;;;15.70;61.50;;;;;;5109772;27;43445;-70
2023/12/04 03:30:46;;;;;;;3.97;3.87;;;15.70;61.60;;;;;;5109458;27;43812;-71
2023/12/04 03:33:16;;;;;;;4.20;4.10;;;15.70;61.60;;;;;;5109361;27;43485;-71
2023/12/04 03:35:44;;;;;;;4.10;4.00;;;15.70;61.60;;;;;;5106109;27;43417;-71
2023/12/04 03:38:12;;;;;;;4.13;4.03;;;15.70;62.30;;;;;;5103075;27;43355;-71
2023/12/04 03:40:40;;;;;;;4.20;4.10;;;15.60;61.50;;;;;;5102739;27;43922;-70
2023/12/04 03:43:08;;;;;;;4.47;4.37;;;15.60;61.60;;;;;;5090927;27;43444;-71
2023/12/04 03:45:36;;;;;;;4.80;4.60;;;15.60;61.60;;;;;;5109406;27;43411;-71
2023/12/04 03:48:04;;;;;;;4.40;4.30;;;15.60;61.70;;;;;;5109050;27;43417;-70
2023/12/04 03:50:34;;;;;;;4.20;4.10;;;15.70;61.60;;;;;;5109201;27;43631;-71
2023/12/04 03:53:02;;;;;;;4.57;4.47;;;15.80;61.40;;;;;;5108594;27;43340;-70
2023/12/04 03:55:30;;;;;;;4.27;4.17;;;15.80;61.00;;;;;;5108372;27;43504;-71
2023/12/04 03:57:59;;;;;;;4.07;3.97;;;15.80;61.10;;;;;;5109399;27;43330;-71
2023/12/04 04:00:27;;;;;;;4.30;4.10;;;15.80;61.10;;;;;;5108857;27;43839;-70
2023/12/04 04:02:55;;;;;;;4.40;4.30;;;15.80;61.10;;;;;;5105060;27;43403;-71
2023/12/04 04:05:23;;;;;;;4.40;4.30;;;15.80;61.20;;;;;;5109211;27;43476;-70
2023/12/04 04:07:52;;;;;;;4.53;4.43;;;15.70;61.20;;;;;;5106406;27;44116;-70
2023/12/04 04:10:20;;;;;;;4.00;3.90;;;15.70;61.30;;;;;;5108473;27;43611;-70
2023/12/04 04:12:48;;;;;;;4.03;3.93;;;15.70;61.30;;;;;;5108948;27;43501;-71
2023/12/04 04:15:17;;;;;;;4.40;4.20;;;15.70;61.30;;;;;;5120543;27;43371;-70
2023/12/04 04:17:45;;;;;;;3.83;3.73;;;15.70;61.30;;;;;;5118766;27;43589;-70
2023/12/04 04:20:14;;;;;;;4.37;4.27;;;15.70;61.40;;;;;;5122111;27;43607;-70
2023/12/04 04:22:42;;;;;;;4.23;4.13;;;15.70;61.40;;;;;;5120147;27;43613;-70
2023/12/04 04:25:11;;;;;;;4.33;4.23;;;15.70;61.50;;;;;;5117622;27;43475;-70
2023/12/04 04:27:39;;;;;;;4.27;4.17;;;15.70;61.50;;;;;;5121512;27;43378;-70
2023/12/04 04:30:08;;;;;;;4.30;4.20;;;15.70;61.40;;;;;;5120527;27;43968;-70
2023/12/04 04:32:36;;;;;;;4.47;4.37;;;15.70;61.40;;;;;;5120226;27;43926;-70
2023/12/04 04:35:05;;;;;;;3.87;3.77;;;15.70;61.50;;;;;;5121581;27;43389;-71
2023/12/04 04:37:33;;;;;;;4.53;4.43;;;15.70;61.50;;;;;;5120969;27;43443;-70
2023/12/04 04:40:01;;;;;;;4.37;4.27;;;15.70;61.50;;;;;;5121184;27;43621;-69
2023/12/04 04:42:30;;;;;;;4.77;4.60;;;15.70;61.60;;;;;;5120154;27;44497;-70
2023/12/04 04:44:58;;;;;;;4.20;4.10;;;15.70;61.50;;;;;;5121053;27;43919;-70
2023/12/04 04:47:27;;;;;;;4.30;4.20;;;15.70;61.20;;;;;;5122293;27;43428;-70
2023/12/04 04:49:55;;;;;;;5.03;4.80;;;15.80;61.10;;;;;;5121774;27;43682;-70
2023/12/04 04:52:23;;;;;;;4.57;4.37;;;15.80;61.10;;;;;;5117513;27;43442;-70
2023/12/04 04:54:51;;;;;;;4.37;4.23;;;15.80;61.10;;;;;;5121827;27;43412;-70
2023/12/04 04:57:19;;;;;;;5.73;5.17;;;15.80;61.10;;;;;;5122587;27;43437;-70
2023/12/04 04:59:48;;;;;;;5.80;5.30;;;15.70;61.10;;;;;;5120900;27;43596;-70
2023/12/04 05:02:17;;;;;;;8.03;5.90;;;15.70;61.20;;;;;;5120269;27;43470;-70
2023/12/04 05:04:45;;;;;;;5.57;5.07;;;15.70;61.20;;;;;;5121545;27;43446;-70
2023/12/04 05:07:13;;;;;;;9.10;6.20;;;15.70;61.30;;;;;;5121087;27;43592;-70
2023/12/04 05:09:41;;;;;;;8.17;6.10;;;15.70;61.20;;;;;;5120701;27;43911;-70
2023/12/04 05:12:09;;;;;;;7.30;6.33;;;15.70;61.30;;;;;;5120160;27;43421;-70
2023/12/04 05:14:37;;;;;;;8.10;6.47;;;15.70;61.30;;;;;;5114306;27;43392;-70
2023/12/04 05:17:07;;;;;;;10.50;6.80;;;15.70;61.40;;;;;;5120127;27;43492;-70
2023/12/04 05:19:35;;;;;;;13.20;7.00;;;15.70;61.50;;;;;;5119775;27;43917;-70
2023/12/04 05:22:03;;;;;;;11.10;6.90;;;15.70;61.60;;;;;;5119591;27;43453;-70
2023/12/04 05:24:31;;;;;;;10.43;7.30;;;15.80;61.20;;;;;;5112099;27;43513;-71
2023/12/04 05:27:00;;;;;;;10.43;7.07;;;15.80;61.00;;;;;;5108583;27;43969;-71
2023/12/04 05:29:28;;;;;;;8.33;6.63;;;15.80;61.00;;;;;;5107842;27;43559;-71
2023/12/04 05:31:57;;;;;;;9.27;7.03;;;15.80;61.00;;;;;;5107624;27;43553;-72
2023/12/04 05:34:26;;;;;;;10.93;7.33;;;15.80;61.00;;;;;;5107698;27;43527;-71
2023/12/04 05:36:54;;;;;;;11.13;6.80;;;15.80;61.10;;;;;;5101319;27;43498;-71
2023/12/04 05:39:22;;;;;;;11.13;7.70;;;15.80;61.20;;;;;;5107502;27;43932;-71
2023/12/04 05:41:50;;;;;;;9.33;6.90;;;15.80;61.20;;;;;;5108013;27;43461;-72
2023/12/04 05:44:18;;;;;;;7.77;6.40;;;15.80;61.30;;;;;;5111003;27;43955;-72
2023/12/04 05:46:46;;;;;;;10.33;7.30;;;15.80;61.20;;;;;;5111805;27;43464;-72
2023/12/04 05:49:14;;;;;;;9.27;7.40;;;15.70;60.90;;;;;;5110446;27;44132;-72
2023/12/04 05:51:44;;;;;;;9.97;7.53;;;15.70;60.90;;;;;;5111063;27;43451;-72
2023/12/04 05:54:12;;;;;;;13.27;8.40;;;15.70;61.00;;;;;;5111019;27;43372;-71
2023/12/04 05:56:40;;;;;;;12.83;8.13;;;15.70;59.50;;;;;;5105509;27;43526;-71
2023/12/04 05:59:08;;;;;;;12.10;8.43;;;15.70;59.40;;;;;;5110533;27;43751;-71
2023/12/04 06:01:36;;;;;;;11.03;8.47;;;15.70;59.80;;;;;;5110813;27;43982;-71
2023/12/04 06:04:04;;;;;;;10.67;7.17;;;15.70;59.90;;;;;;5121268;27;43470;-68
2023/12/04 06:06:32;;;;;;;10.27;7.70;;;15.80;60.20;;;;;;5135518;27;43442;-67
2023/12/04 06:09:01;;;;;;;10.03;7.77;;;15.70;60.20;;;;;;5135266;27;43930;-68
2023/12/04 06:11:29;;;;;;;8.50;7.50;;;15.70;60.30;;;;;;5134625;27;43454;-69
2023/12/04 06:13:59;;;;;;;10.07;7.53;;;15.70;60.40;;;;;;5134941;27;43460;-69
2023/12/04 06:16:30;;;;;;;8.60;7.13;;;15.70;60.40;;;;;;5135037;27;43797;-69
2023/12/04 06:19:01;;;;;;;8.87;7.30;;;15.70;60.60;;;;;;5134920;27;43891;-67
2023/12/04 06:21:32;;;;;;;10.00;7.30;;;15.70;60.60;;;;;;5134678;27;43460;-68
2023/12/04 06:24:05;;;;;;;9.03;7.53;;;15.70;60.60;;;;;;5134778;27;43441;-67
2023/12/04 06:26:36;;;;;;;9.80;7.67;;;15.70;60.70;;;;;;5134496;27;43604;-67
2023/12/04 06:29:04;;;;;;;9.50;6.97;;;15.60;60.60;;;;;;5134804;27;43701;-67
2023/12/04 06:31:35;;;;;;;9.77;7.63;;;15.60;60.70;;;;;;5134931;27;43381;-67
2023/12/04 06:34:06;;;;;;;7.63;6.93;;;15.60;60.70;;;;;;5123858;27;43458;-71
2023/12/04 06:36:40;;;;;;;8.47;6.77;;;15.60;60.70;;;;;;5110033;27;43351;-70
2023/12/04 06:39:12;;;;;;;7.67;6.87;;;15.60;60.70;;;;;;5110139;27;43844;-71
2023/12/04 06:41:44;;;;;;;7.80;6.90;;;15.60;60.70;;;;;;5109528;27;43492;-71
2023/12/04 06:44:12;;;;;;;7.30;6.60;;;15.70;60.80;;;;;;5110092;27;44256;-70
2023/12/04 06:46:46;;;;;;;8.47;6.83;;;15.70;60.80;;;;;;5110755;27;43435;-71
2023/12/04 06:49:14;;;;;;;7.70;6.90;;;15.60;60.80;;;;;;5109365;27;43876;-71
2023/12/04 06:51:42;;;;;;;8.67;6.57;;;15.60;60.80;;;;;;5110230;27;44055;-71
2023/12/04 06:54:13;;;;;;;8.10;7.23;;;15.70;60.70;;;;;;5106005;27;43442;-70
2023/12/04 06:56:41;;;;;;;9.87;7.63;;;15.80;60.40;;;;;;5110434;27;43413;-71
2023/12/04 06:59:12;;;;;;;9.53;6.80;;;15.80;60.30;;;;;;5109873;27;43616;-71
2023/12/04 07:01:40;;;;;;;6.87;6.30;;;15.80;60.30;;;;;;5109994;27;43417;-71
2023/12/04 07:04:11;;;;;;;7.77;6.97;;;15.80;60.30;;;;;;5109946;27;43945;-71
2023/12/04 07:09:22;;;;;;;7.80;6.73;;;15.80;60.50;;;;;;5105927;27;43922;-71
2023/12/04 07:11:50;;;;;;;8.63;6.77;;;15.80;60.50;;;;;;5109451;27;43633;-70
2023/12/04 07:14:18;;;;;;;6.87;6.27;;;15.70;60.50;;;;;;5115775;27;43417;-70
2023/12/04 07:16:46;;;;;;;7.07;6.37;;;15.70;60.50;;;;;;5120964;27;43285;-70
2023/12/04 07:19:16;;;;;;;6.47;5.93;;;15.70;60.60;;;;;;5119774;27;43643;-70
2023/12/04 07:21:44;;;;;;;6.93;6.33;;;15.70;60.60;;;;;;5119657;27;43436;-70
2023/12/04 07:24:12;;;;;;;7.40;6.70;;;15.70;60.70;;;;;;5119403;27;43509;-70
2023/12/04 07:26:41;;;;;;;6.67;6.13;;;15.70;60.70;;;;;;5120761;27;43438;-70
2023/12/04 07:29:09;;;;;;;6.23;5.83;;;15.70;60.80;;;;;;5119129;27;43606;-70
2023/12/04 07:31:38;;;;;;;7.20;6.53;;;15.70;60.60;;;;;;5119749;27;43417;-70
2023/12/04 07:34:06;;;;;;;6.77;6.17;;;15.80;60.50;;;;;;5118571;27;43407;-70
2023/12/04 07:36:34;;;;;;;6.80;6.27;;;15.80;60.40;;;;;;5116318;27;44066;-70
2023/12/04 07:39:02;;;;;;;6.63;6.03;;;15.80;61.10;;;;;;5111756;27;46293;-69
2023/12/04 07:41:30;;;;;;;6.83;6.13;;;15.80;60.50;;;;;;5119693;27;43392;-69
2023/12/04 07:44:00;;;;;;;7.03;6.43;;;15.70;60.80;;;;;;5115929;27;43427;-72
2023/12/04 07:46:28;;;;;;;7.13;6.43;;;15.70;60.50;;;;;;5102169;27;43477;-72
2023/12/04 07:48:56;;;;;;;6.97;6.37;;;15.70;60.50;;;;;;5097422;27;45671;-72
2023/12/04 07:51:24;;;;;;;6.47;6.00;;;15.70;60.60;;;;;;5106673;27;43459;-71
2023/12/04 07:53:52;;;;;;;6.30;5.80;;;15.70;60.60;;;;;;5109239;27;43397;-71
2023/12/04 07:56:20;;;;;;;6.73;6.13;;;15.70;60.60;;;;;;5109667;27;43420;-72
2023/12/04 07:58:48;;;;;;;6.87;6.37;;;15.70;60.70;;;;;;5108863;27;43618;-72
2023/12/04 08:01:18;;;;;;;6.33;5.90;;;15.70;60.80;;;;;;5109350;27;43413;-71
2023/12/04 08:03:46;;;;;;;6.63;6.03;;;15.70;60.80;;;;;;5109291;27;43424;-71
2023/12/04 08:06:15;;;;;;;6.07;5.63;;;15.70;60.80;;;;;;5108557;27;43399;-71
2023/12/04 08:08:43;;;;;;;6.57;5.97;;;15.70;60.80;;;;;;5108401;27;43757;-71
2023/12/04 08:11:11;;;;;;;6.03;5.53;;;15.70;60.80;;;;;;5102350;27;43518;-71
2023/12/04 08:13:39;;;;;;;5.93;5.53;;;15.70;60.80;;;;;;5104949;27;43355;-72
2023/12/04 08:16:13;;;;;;;6.43;5.90;;;15.70;60.90;;;;;;5102911;27;43430;-71
2023/12/04 08:18:43;;;;;;;6.60;6.10;;;15.70;60.90;;;;;;5108858;27;43967;-71
2023/12/04 08:21:11;;;;;;;6.20;5.80;;;15.60;60.80;;;;;;5108063;27;43403;-71
2023/12/04 08:23:40;;;;;;;6.40;5.90;;;15.60;60.80;;;;;;5115133;27;43460;-66
2023/12/04 08:26:08;;;;;;;6.40;5.90;;;15.70;60.70;;;;;;5133870;27;43397;-66
2023/12/04 08:28:37;;;;;;;6.57;6.07;;;15.80;60.40;;;;;;5132423;27;43591;-69
2023/12/04 08:31:08;;;;;;;6.57;6.07;;;15.80;60.30;;;;;;5132759;27;43386;-67
2023/12/04 08:33:36;;;;;;;6.63;6.13;;;15.80;60.30;;;;;;5131201;27;43390;-67
2023/12/04 08:36:06;;;;;;;5.80;5.40;;;15.80;60.40;;;;;;5133237;27;43463;-68
2023/12/04 08:38:34;;;;;;;5.90;5.50;;;15.80;60.40;;;;;;5130664;27;43616;-68
2023/12/04 08:41:02;;;;;;;5.97;5.50;;;15.80;60.60;;;;;;5132622;27;43381;-67
2023/12/04 08:43:31;;;;;;;6.07;5.57;;;15.70;60.50;;;;;;5132862;27;43356;-68
2023/12/04 08:46:00;;;;;;;5.80;5.47;;;15.70;60.60;;;;;;5131204;27;43328;-68
2023/12/04 08:48:28;;;;;;;6.20;5.80;;;15.70;60.60;;;;;;5130547;27;43794;-66
2023/12/04 08:50:56;;;;;;;5.33;4.93;;;15.70;60.70;;;;;;5127723;27;44818;-69
2023/12/04 08:53:25;;;;;;;5.77;5.37;;;15.70;60.80;;;;;;5129066;27;43473;-72
2023/12/04 08:55:53;;;;;;;5.93;5.53;;;15.70;60.80;;;;;;5108763;27;43388;-72
2023/12/04 08:58:22;;;;;;;5.90;5.50;;;15.70;60.90;;;;;;5108284;27;43617;-72
2023/12/04 09:00:50;;;;;;;5.87;5.40;;;15.70;60.90;;;;;;5108354;27;43471;-71
2023/12/04 09:03:19;;;;;;;5.90;5.50;;;15.70;60.90;;;;;;5108419;27;43439;-72
2023/12/04 09:05:58;;;;;;;5.60;5.27;;;15.70;60.90;;;;;;5108936;27;43402;-71
2023/12/04 09:08:28;;;;;;;5.77;5.37;;;15.70;60.90;;;;;;5107978;27;43847;-71
2023/12/04 09:11:07;;;;;;;5.10;4.77;;;15.70;60.90;;;;;;5107901;27;43458;-72
2023/12/04 09:13:50;;;;;;;5.80;5.50;;;15.60;61.00;;;;;;5108611;27;43461;-71
2023/12/04 09:16:18;;;;;;;5.70;5.40;;;15.60;61.00;;;;;;5108484;27;43351;-71
2023/12/04 09:18:47;;;;;;;5.40;5.03;;;15.70;61.00;;;;;;5107896;27;45715;-71
2023/12/04 09:21:15;;;;;;;5.60;5.30;;;15.70;60.70;;;;;;5111100;27;43512;-71
2023/12/04 09:23:49;;;;;;;5.50;5.20;;;15.80;60.60;;;;;;5100496;27;43351;-72
2023/12/04 09:26:17;;;;;;;5.20;5.00;;;15.80;60.50;;;;;;5111748;27;43436;-71
2023/12/04 09:28:46;;;;;;;5.83;5.43;;;15.80;60.50;;;;;;5110311;27;43913;-71
2023/12/04 09:31:14;;;;;;;5.13;4.93;;;15.80;60.60;;;;;;5107654;27;43391;-72
2023/12/04 09:33:42;;;;;;;5.27;5.07;;;15.80;60.60;;;;;;5117639;27;43381;-67
2023/12/04 09:36:11;;;;;;;5.13;4.83;;;15.70;60.60;;;;;;5132071;27;43607;-67
2023/12/04 09:38:39;;;;;;;5.43;5.13;;;15.70;60.70;;;;;;5135678;27;43607;-67
2023/12/04 09:41:09;;;;;;;5.80;5.40;;;15.70;60.70;;;;;;5135427;27;43499;-67
2023/12/04 09:43:37;;;;;;;5.30;5.10;;;15.70;60.80;;;;;;5133018;27;43340;-67
2023/12/04 09:46:06;;;;;;;5.90;5.50;;;15.70;60.80;;;;;;5130484;27;43551;-68
2023/12/04 09:48:34;;;;;;;5.40;5.20;;;15.70;60.90;;;;;;5123096;27;45831;-68
2023/12/04 09:51:06;;;;;;;5.40;5.10;;;15.70;61.00;;;;;;5135428;27;43838;-67
2023/12/04 09:53:34;;;;;;;4.60;4.40;;;15.60;60.90;;;;;;5135235;27;43359;-67
2023/12/04 09:56:04;;;;;;;5.20;4.73;;;15.60;60.90;;;;;;5135877;27;43363;-68
2023/12/04 09:58:34;;;;;;;4.90;4.70;;;15.60;60.90;;;;;;5135586;27;43589;-67
2023/12/04 10:01:02;;;;;;;4.97;4.73;;;15.60;60.90;;;;;;5135195;27;43444;-69
2023/12/04 10:03:30;;;;;;;5.10;4.90;;;15.60;61.00;;;;;;5133609;27;43456;-70
2023/12/04 10:05:58;;;;;;;4.80;4.60;;;15.60;61.00;;;;;;5125666;27;43509;-70
2023/12/04 10:08:26;;;;;;;5.20;4.90;;;15.60;61.10;;;;;;5124752;27;44284;-70
2023/12/04 10:10:54;;;;;;;4.83;4.60;;;15.60;61.10;;;;;;5124941;27;43359;-70
2023/12/04 10:13:23;;;;;;;5.00;4.70;;;15.70;61.00;;;;;;5117160;27;43455;-70
2023/12/04 10:16:12;;;;;;;5.27;4.93;;;15.70;60.70;;;;;;5119391;27;43367;-70
2023/12/04 10:18:40;;;;;;;4.83;4.63;;;15.80;60.50;;;;;;5123888;27;43685;-69
2023/12/04 10:21:08;;;;;;;4.40;4.20;;;15.80;60.60;;;;;;5104980;27;44719;-70
2023/12/04 10:23:44;;;;;;;4.20;4.00;;;15.80;60.60;;;;;;5123541;27;43403;-70
2023/12/04 10:26:15;;;;;;;4.27;4.10;;;15.80;60.60;;;;;;5116487;27;44018;-70
2023/12/04 10:28:59;;;;;;;5.07;4.77;;;15.80;60.80;;;;;;5123115;27;43686;-70
2023/12/04 10:31:32;;;;;;;4.70;4.50;;;15.70;60.70;;;;;;5122202;27;43372;-70
2023/12/04 10:34:00;;;;;;;4.53;4.43;;;15.70;60.80;;;;;;5115485;27;43438;-69
2023/12/04 10:36:29;;;;;;;4.57;4.37;;;15.70;60.80;;;;;;5123939;27;43860;-69
2023/12/04 10:39:00;;;;;;;4.87;4.60;;;15.70;60.90;;;;;;5122857;27;44097;-70
2023/12/04 10:41:28;;;;;;;4.77;4.57;;;15.70;61.00;;;;;;5114200;27;44706;-69
2023/12/04 10:43:57;;;;;;;4.60;4.40;;;15.70;61.00;;;;;;5127439;27;43429;-67
2023/12/04 10:46:40;;;;;;;4.57;4.37;;;15.60;61.00;;;;;;5118471;27;44171;-69
2023/12/04 10:49:08;;;;;;;4.00;3.80;;;15.60;61.00;;;;;;5134083;27;44029;-68
2023/12/04 10:51:36;;;;;;;4.13;3.97;;;15.70;61.20;;;;;;5134417;27;43369;-68
2023/12/04 10:54:05;;;;;;;4.23;4.13;;;15.70;61.10;;;;;;5135340;27;43703;-69
2023/12/04 10:56:36;;;;;;;5.03;4.80;;;15.70;61.20;;;;;;5135600;27;43450;-68
2023/12/04 10:59:04;;;;;;;3.93;3.73;;;15.70;61.20;;;;;;5134702;27;43606;-68
2023/12/04 11:01:33;;;;;;;4.37;4.17;;;15.70;61.20;;;;;;5134028;27;43442;-67
2023/12/04 11:04:06;;;;;;;5.07;4.77;;;15.60;61.10;;;;;;5135144;27;43325;-69
2023/12/04 11:06:35;;;;;;;4.27;4.17;;;15.60;61.10;;;;;;5128618;27;43491;-68
2023/12/04 11:09:05;;;;;;;4.30;4.13;;;15.70;61.00;;;;;;5125152;27;45659;-70
2023/12/04 11:11:35;;;;;;;4.30;4.20;;;15.80;60.70;;;;;;5134165;27;44063;-68
2023/12/04 11:14:05;;;;;;;3.90;3.80;;;15.80;60.60;;;;;;5125451;27;43377;-71
2023/12/04 11:16:36;;;;;;;4.13;3.93;;;15.80;60.70;;;;;;5110446;27;43491;-71
2023/12/04 11:19:16;;;;;;;4.07;3.97;;;15.80;61.50;;;;;;5109605;27;43942;-72
2023/12/04 11:21:45;;;;;;;4.33;4.13;;;15.80;60.80;;;;;;5109139;27;43395;-71
2023/12/04 11:24:13;;;;;;;4.00;3.90;;;15.80;60.90;;;;;;5109955;27;43365;-71
2023/12/04 11:26:41;;;;;;;3.60;3.50;;;15.80;60.90;;;;;;5109965;27;43607;-71
2023/12/04 11:29:09;;;;;;;4.33;4.23;;;15.70;60.90;;;;;;5109549;27;43936;-71
2023/12/04 11:31:37;;;;;;;3.93;3.73;;;15.70;60.90;;;;;;5109259;27;43450;-71
2023/12/04 11:34:09;;;;;;;3.80;3.70;;;15.70;61.10;;;;;;5109936;27;43905;-72
2023/12/04 11:36:37;;;;;;;3.53;3.43;;;15.70;61.80;;;;;;5108947;27;44061;-71
2023/12/04 11:39:09;;;;;;;4.07;3.90;;;15.70;61.10;;;;;;5108916;27;43562;-71
2023/12/04 11:41:38;;;;;;;3.70;3.60;;;15.70;61.10;;;;;;5108875;27;43430;-71
2023/12/04 11:44:10;;;;;;;4.20;3.90;;;15.70;61.20;;;;;;5109544;27;43437;-71
2023/12/04 11:46:38;;;;;;;4.10;3.90;;;15.70;61.20;;;;;;5110029;27;43352;-71
2023/12/04 11:49:29;;;;;;;4.13;3.87;;;15.70;61.20;;;;;;5109205;27;44010;-71
2023/12/04 11:51:58;;;;;;;3.70;3.60;;;15.70;61.20;;;;;;5099663;27;45048;-71
2023/12/04 11:54:27;;;;;;;3.83;3.63;;;15.70;61.20;;;;;;5121352;27;43344;-67
2023/12/04 11:57:00;;;;;;;3.87;3.77;;;15.60;61.10;;;;;;5134147;27;43418;-67
2023/12/04 11:59:28;;;;;;;3.67;3.57;;;15.60;61.20;;;;;;5133922;27;44216;-67
2023/12/04 12:01:57;;;;;;;3.20;3.10;;;15.70;61.10;;;;;;5133460;27;43398;-68
2023/12/04 12:04:26;;;;;;;3.40;3.30;;;15.80;60.90;;;;;;5133725;27;43513;-68
2023/12/04 12:07:02;;;;;;;3.43;3.33;;;15.80;60.80;;;;;;5133645;27;43457;-68
2023/12/04 12:09:30;;;;;;;3.70;3.50;;;15.80;60.70;;;;;;5116604;27;45422;-67
2023/12/04 12:11:58;;;;;;;3.30;3.20;;;15.80;60.80;;;;;;5132421;27;43398;-67
2023/12/04 12:14:26;;;;;;;3.47;3.37;;;15.70;60.80;;;;;;5132150;27;43356;-68
2023/12/04 12:16:56;;;;;;;3.23;3.13;;;15.70;60.90;;;;;;5126832;27;43392;-67
2023/12/04 12:19:24;;;;;;;3.43;3.30;;;15.70;61.00;;;;;;5129338;27;43761;-68
2023/12/04 12:21:52;;;;;;;3.23;3.13;;;15.70;61.00;;;;;;5126085;27;43439;-68
2023/12/04 12:24:21;;;;;;;3.60;3.40;;;15.70;61.10;;;;;;5119771;27;43478;-71
2023/12/04 12:26:49;;;;;;;3.80;3.60;;;15.70;61.20;;;;;;5102830;27;43367;-71
2023/12/04 12:29:19;;;;;;;3.20;3.10;;;15.70;61.20;;;;;;5108474;27;45033;-71
2023/12/04 12:31:47;;;;;;;3.30;3.20;;;15.70;61.30;;;;;;5107553;27;44128;-71
2023/12/04 12:34:15;;;;;;;2.90;2.80;;;15.70;61.30;;;;;;5103032;27;43363;-71
2023/12/04 12:36:43;;;;;;;2.77;2.67;;;15.70;61.40;;;;;;5109084;27;43400;-71
2023/12/04 12:39:12;;;;;;;3.03;2.87;;;15.70;61.40;;;;;;5108729;27;43842;-71
2023/12/04 12:41:47;;;;;;;3.03;2.93;;;15.70;61.40;;;;;;5108357;27;43360;-71
2023/12/04 12:44:16;;;;;;;3.10;3.00;;;15.70;61.40;;;;;;5103685;27;43498;-71
2023/12/04 12:46:48;;;;;;;3.30;3.20;;;15.70;61.50;;;;;;5107148;27;43537;-71
2023/12/04 12:49:18;;;;;;;3.20;3.10;;;15.60;61.40;;;;;;5108550;27;43659;-71
2023/12/04 12:52:03;;;;;;;2.90;2.80;;;15.60;61.50;;;;;;5106177;27;43519;-71
2023/12/04 12:54:32;;;;;;;3.00;2.90;;;15.70;61.50;;;;;;5107958;27;43453;-71
2023/12/04 12:57:02;;;;;;;3.13;3.03;;;15.80;61.20;;;;;;5108592;27;43700;-71